Time;durP1;ratioP1;P1;durP2;ratioP2;P2;SDS_P1;SDS_P2;PMS_P1;PMS_P2;Temp;Humidity;BMP_temperature;BMP_pressure;BME280_temperature;BME280_humidity;BME280_pressure;Samples;Min_cycle;Max_cycle;Signal;HPM_P1;HPM_P2
2023/06/29 00:01:00;;;;;;;2.73;2.53;;;;;;;18.36;100.00;7909.16;6213960;23;20154;-59
2023/06/29 00:03:27;;;;;;;2.53;2.43;;;;;;;18.19;100.00;6285.31;6214493;23;20173;-61
2023/06/29 00:05:57;;;;;;;2.60;2.40;;;;;;;17.94;100.00;1425.91;6213543;23;20162;-59
2023/06/29 00:08:25;;;;;;;2.80;2.70;;;;;;;17.96;100.00;-3422.38;6213756;23;20165;-59
2023/06/29 00:10:52;;;;;;;2.97;2.87;;;;;;;17.91;100.00;-9552.97;6213582;23;20182;-58
2023/06/29 00:13:19;;;;;;;2.80;2.70;;;;;;;17.88;100.00;-13096.59;6213854;23;20157;-58
2023/06/29 00:15:46;;;;;;;3.00;2.90;;;;;;;17.79;100.00;-16956.41;6213561;23;20201;-58
2023/06/29 00:18:13;;;;;;;2.97;2.87;;;;;;;17.69;100.00;-15024.53;6213657;23;20242;-59
2023/06/29 00:20:41;;;;;;;3.00;2.70;;;;;;;17.45;100.00;-15019.94;6213730;23;20158;-58
2023/06/29 00:23:10;;;;;;;4.90;3.53;;;;;;;17.49;100.00;-13734.09;6215602;23;20245;-57
2023/06/29 00:25:38;;;;;;;4.80;3.60;;;;;;;17.44;100.00;-13089.78;6189110;23;20184;-59
2023/06/29 00:28:05;;;;;;;4.17;3.73;;;;;;;17.36;100.00;-13410.25;6216206;23;20157;-59
2023/06/29 00:30:32;;;;;;;3.87;3.57;;;;;;;17.41;100.00;-13411.06;6215469;23;20180;-59
2023/06/29 00:32:59;;;;;;;3.30;3.20;;;;;;;17.43;100.00;-13733.09;6215985;23;20181;-59
2023/06/29 00:35:26;;;;;;;3.47;3.27;;;;;;;17.32;100.00;-12122.72;6215702;23;20237;-59
2023/06/29 00:37:53;;;;;;;3.27;3.07;;;;;;;17.24;100.00;-11799.75;6215839;23;20161;-59
2023/06/29 00:40:21;;;;;;;4.10;3.40;;;;;;;17.27;100.00;-13087.13;6215758;23;20158;-59
2023/06/29 00:42:48;;;;;;;3.30;3.10;;;;;;;17.01;100.00;-11796.69;6215837;23;20162;-59
2023/06/29 00:45:16;;;;;;;2.70;2.60;;;;;;;17.16;100.00;-13085.41;6215384;23;20220;-59
2023/06/29 00:47:43;;;;;;;2.80;2.70;;;;;;;17.12;100.00;-11154.66;6215410;23;20164;-58
2023/06/29 00:50:11;;;;;;;2.80;2.70;;;;;;;17.15;100.00;-12441.94;6215577;23;20166;-59
2023/06/29 00:52:38;;;;;;;3.30;2.67;;;;;;;16.98;100.00;-12439.47;6215323;23;20172;-59
2023/06/29 00:55:06;;;;;;;2.80;2.70;;;;;;;16.82;100.00;-12115.72;6215610;23;20589;-59
2023/06/29 00:57:34;;;;;;;2.57;2.47;;;;;;;16.96;100.00;-12117.56;6215614;23;20473;-58
2023/06/29 01:00:05;;;;;;;3.60;2.50;;;;;;;16.88;100.00;-12116.56;6215499;23;20158;-59
2023/06/29 01:02:35;;;;;;;2.23;2.23;;;;;;;16.73;100.00;-12114.38;6215440;23;20176;-60
2023/06/29 01:05:04;;;;;;;3.00;2.90;;;;;;;16.73;100.00;-12435.94;6215439;23;20666;-59
2023/06/29 01:07:37;;;;;;;2.90;2.80;;;;;;;16.57;100.00;-13076.22;6215163;23;20168;-57
2023/06/29 01:10:05;;;;;;;3.20;3.10;;;;;;;16.66;100.00;-13720.41;6214942;23;20212;-58
2023/06/29 01:12:35;;;;;;;3.13;2.83;;;;;;;16.62;100.00;-14041.00;6215580;23;20565;-59
2023/06/29 01:15:03;;;;;;;3.47;3.17;;;;;;;16.74;100.00;-14685.66;6214771;23;20201;-58
2023/06/29 01:17:31;;;;;;;4.60;2.90;;;;;;;16.67;100.00;-14684.38;6215675;23;20412;-58
2023/06/29 01:19:59;;;;;;;3.13;3.03;;;;;;;16.84;100.00;-14687.47;6215081;23;20654;-58
2023/06/29 01:22:31;;;;;;;3.40;3.20;;;;;;;16.72;100.00;-14685.28;6215179;23;20197;-58
2023/06/29 01:25:00;;;;;;;3.40;3.20;;;;;;;16.80;100.00;-15650.44;6215004;23;20162;-58
2023/06/29 01:27:27;;;;;;;3.43;3.27;;;;;;;16.91;100.00;-15973.75;6214916;23;20153;-57
2023/06/29 01:29:55;;;;;;;3.03;2.83;;;;;;;16.85;100.00;-15651.44;6214900;23;20162;-57
2023/06/29 01:32:31;;;;;;;3.43;3.23;;;;;;;16.84;100.00;-15329.94;6214932;23;20184;-58
2023/06/29 01:34:58;;;;;;;3.33;3.23;;;;;;;16.78;100.00;-15650.06;6214848;23;20161;-58
2023/06/29 01:37:29;;;;;;;3.70;3.47;;;;;;;16.68;100.00;-16290.25;6214747;23;20169;-58
2023/06/29 01:40:01;;;;;;;3.50;3.30;;;;;;;16.78;100.00;-16613.34;6214804;23;20161;-58
2023/06/29 01:42:32;;;;;;;4.07;3.87;;;;;;;16.74;100.00;-16612.59;6214698;23;20162;-59
2023/06/29 01:45:00;;;;;;;3.80;3.50;;;;;;;16.96;100.00;-16938.25;6214989;23;20551;-58
2023/06/29 01:47:28;;;;;;;3.43;3.30;;;;;;;16.91;100.00;-16616.13;6214663;23;20158;-59
2023/06/29 01:49:55;;;;;;;3.30;3.20;;;;;;;16.96;100.00;-16617.09;6214595;23;20168;-57
2023/06/29 01:52:22;;;;;;;3.33;3.13;;;;;;;16.89;100.00;-16294.66;6214891;23;20659;-58
2023/06/29 01:54:50;;;;;;;4.40;3.27;;;;;;;16.97;100.00;-16938.47;6214898;23;20178;-58
2023/06/29 01:57:18;;;;;;;3.90;3.50;;;;;;;16.83;100.00;-16935.63;6214709;23;20220;-57
2023/06/29 01:59:46;;;;;;;3.60;3.50;;;;;;;16.82;100.00;-16935.41;6215031;23;20589;-57
2023/06/29 02:02:13;;;;;;;3.50;3.30;;;;;;;16.87;100.00;-16936.50;6214720;23;20169;-56
2023/06/29 02:04:40;;;;;;;3.47;3.17;;;;;;;16.85;100.00;-17257.13;6214766;23;20158;-59
2023/06/29 02:07:07;;;;;;;3.67;3.43;;;;;;;16.91;100.00;-17258.34;6214997;23;20233;-58
2023/06/29 02:09:34;;;;;;;3.83;3.53;;;;;;;16.90;100.00;-17258.25;6214464;23;20164;-58
2023/06/29 02:12:02;;;;;;;4.20;4.00;;;;;;;16.90;100.00;-17258.25;6214385;23;20181;-59
2023/06/29 02:14:30;;;;;;;3.90;3.80;;;;;;;16.87;100.00;-17578.50;6215197;23;21969;-59
2023/06/29 02:16:57;;;;;;;4.10;4.00;;;;;;;16.81;100.00;-17577.13;6214402;23;20169;-57
2023/06/29 02:19:24;;;;;;;4.23;3.93;;;;;;;16.90;100.00;-17579.31;6214418;23;20161;-57
2023/06/29 02:21:50;;;;;;;3.97;3.83;;;;;;;16.94;100.00;-17580.13;6215026;23;20246;-58
2023/06/29 02:24:17;;;;;;;4.03;3.70;;;;;;;16.85;100.00;-17578.06;6214558;23;20236;-58
2023/06/29 02:26:44;;;;;;;4.17;4.00;;;;;;;17.00;100.00;-17581.38;6214290;23;20162;-58
2023/06/29 02:29:11;;;;;;;4.03;3.67;;;;;;;16.99;100.00;-17260.03;6214246;23;20154;-57
2023/06/29 02:31:39;;;;;;;3.77;3.67;;;;;;;16.94;100.00;-16937.81;6214256;23;20182;-58
2023/06/29 02:34:06;;;;;;;4.03;3.73;;;;;;;17.01;100.00;-16296.94;6214769;23;20587;-60
2023/06/29 02:36:33;;;;;;;4.07;3.87;;;;;;;16.99;100.00;-16296.53;6214649;23;20611;-58
2023/06/29 02:39:00;;;;;;;3.50;3.40;;;;;;;16.90;100.00;-16294.84;6214651;23;20161;-57
2023/06/29 02:41:27;;;;;;;3.60;3.50;;;;;;;16.95;100.00;-16616.97;6214568;23;20492;-58
2023/06/29 02:43:54;;;;;;;4.23;4.00;;;;;;;16.93;100.00;-16937.59;6214324;23;20164;-58
2023/06/29 02:46:21;;;;;;;3.93;3.60;;;;;;;16.90;100.00;-17258.25;6213864;23;20200;-57
2023/06/29 02:48:49;;;;;;;3.97;3.50;;;;;;;16.73;100.00;-17254.31;6214124;23;20162;-57
2023/06/29 02:51:16;;;;;;;4.27;3.87;;;;;;;16.81;100.00;-17256.22;6214293;23;20204;-57
2023/06/29 02:53:43;;;;;;;4.07;3.87;;;;;;;16.83;100.00;-16935.50;6214495;23;20232;-57
2023/06/29 02:56:10;;;;;;;6.60;3.90;;;;;;;16.89;100.00;-16936.81;6214412;23;20157;-58
2023/06/29 02:58:37;;;;;;;3.50;3.37;;;;;;;16.95;100.00;-16938.03;6214454;23;20165;-57
2023/06/29 03:01:04;;;;;;;3.93;3.73;;;;;;;16.96;100.00;-16938.25;6214079;23;20161;-57
2023/06/29 03:03:30;;;;;;;4.40;4.10;;;;;;;16.94;100.00;-16937.81;6214508;23;20242;-61
2023/06/29 03:05:59;;;;;;;4.00;3.50;;;;;;;16.83;100.00;-16935.50;6214273;23;20597;-57
2023/06/29 03:08:25;;;;;;;3.83;3.57;;;;;;;16.92;100.00;-16937.47;6214155;23;20162;-57
2023/06/29 03:10:52;;;;;;;3.83;3.47;;;;;;;16.86;100.00;-16936.28;6213840;23;20153;-58
2023/06/29 03:13:19;;;;;;;3.93;3.73;;;;;;;16.79;100.00;-16934.75;6213971;23;20161;-58
2023/06/29 03:15:46;;;;;;;4.27;4.07;;;;;;;16.98;100.00;-16617.63;6213789;23;20204;-59
2023/06/29 03:18:13;;;;;;;11.00;3.90;;;;;;;16.87;100.00;-16936.38;6213871;23;20158;-59
2023/06/29 03:20:40;;;;;;;4.50;4.30;;;;;;;16.96;100.00;-17259.47;6213725;23;20165;-58
2023/06/29 03:23:08;;;;;;;4.03;3.93;;;;;;;16.92;100.00;-17258.47;6213799;23;20161;-58
2023/06/29 03:25:35;;;;;;;4.17;3.97;;;;;;;17.07;100.00;-17261.94;6214062;23;20596;-57
2023/06/29 03:28:02;;;;;;;4.27;4.07;;;;;;;17.09;100.00;-16941.19;6214108;23;20166;-57
2023/06/29 03:30:28;;;;;;;4.90;4.50;;;;;;;17.08;100.00;-17262.16;6214220;23;20264;-58
2023/06/29 03:32:58;;;;;;;4.23;3.93;;;;;;;17.09;100.00;-17262.28;6213856;23;20635;-59
2023/06/29 03:35:25;;;;;;;4.50;4.20;;;;;;;17.03;100.00;-17260.94;6213739;23;20164;-57
2023/06/29 03:37:51;;;;;;;4.13;3.83;;;;;;;17.03;100.00;-17260.94;6213723;23;20173;-59
2023/06/29 03:40:20;;;;;;;3.87;3.70;;;;;;;16.92;100.00;-17258.47;6214130;23;20158;-58
2023/06/29 03:42:47;;;;;;;4.13;3.93;;;;;;;17.01;100.00;-17260.59;6213708;23;20161;-58
2023/06/29 03:45:14;;;;;;;4.47;4.27;;;;;;;16.84;100.00;-17256.91;6213595;23;20164;-58
2023/06/29 03:47:40;;;;;;;3.90;3.80;;;;;;;16.99;100.00;-17260.03;6213714;23;20249;-58
2023/06/29 03:50:08;;;;;;;4.40;4.10;;;;;;;16.98;100.00;-17259.81;6213648;23;20162;-58
2023/06/29 03:52:35;;;;;;;4.50;4.40;;;;;;;17.08;100.00;-17583.31;6213465;23;20200;-59
2023/06/29 03:55:02;;;;;;;4.23;3.90;;;;;;;17.25;100.00;-17587.09;6213572;23;20158;-57
2023/06/29 03:57:30;;;;;;;4.50;4.30;;;;;;;17.18;100.00;-17264.41;6213852;23;20485;-57
2023/06/29 03:59:57;;;;;;;4.80;4.40;;;;;;;17.19;100.00;-16943.28;6213870;23;20158;-58
2023/06/29 04:02:23;;;;;;;4.37;4.17;;;;;;;17.40;100.00;-16947.75;6212952;23;20173;-58
2023/06/29 04:04:50;;;;;;;4.80;3.93;;;;;;;17.38;100.00;-16947.44;6214106;23;20169;-59
2023/06/29 04:07:17;;;;;;;4.10;3.90;;;;;;;17.51;100.00;-16950.28;6213735;23;20161;-58
2023/06/29 04:09:44;;;;;;;4.00;3.80;;;;;;;17.56;100.00;-16951.38;6213460;23;20158;-57
2023/06/29 04:12:11;;;;;;;4.27;3.93;;;;;;;17.66;100.00;-16953.56;6213884;23;20640;-58
2023/06/29 04:14:39;;;;;;;4.50;3.73;;;;;;;17.76;100.00;-17277.16;6213315;23;20197;-58
2023/06/29 04:17:07;;;;;;;4.27;4.07;;;;;;;17.68;100.00;-17596.84;6213444;23;20240;-59
2023/06/29 04:19:34;;;;;;;4.20;4.07;;;;;;;17.93;100.00;-17602.44;6213685;23;20167;-59
2023/06/29 04:22:01;;;;;;;4.10;3.90;;;;;;;17.95;100.00;-17603.03;6213953;23;20484;-58
2023/06/29 04:24:28;;;;;;;4.13;3.83;;;;;;;18.12;100.00;-17928.47;6213643;23;20161;-58
2023/06/29 04:26:58;;;;;;;4.37;3.97;;;;;;;18.26;100.00;-18253.53;6213954;23;20172;-58
2023/06/29 04:29:25;;;;;;;4.73;4.33;;;;;;;18.41;100.00;-18257.00;6213987;23;20237;-59
2023/06/29 04:31:54;;;;;;;5.07;4.67;;;;;;;18.51;100.00;-18259.28;6213380;23;20178;-59
2023/06/29 04:34:21;;;;;;;4.93;4.53;;;;;;;18.60;100.00;-18261.44;6213356;23;20240;-59
2023/06/29 04:36:48;;;;;;;4.90;4.60;;;;;;;18.67;100.00;-18265.13;6213814;23;20287;-58
2023/06/29 04:39:15;;;;;;;5.27;5.07;;;;;;;18.71;100.00;-18265.94;6213386;23;20165;-58
2023/06/29 04:41:42;;;;;;;5.17;4.90;;;;;;;18.82;100.00;-18268.47;6213873;23;20158;-59
2023/06/29 04:44:09;;;;;;;4.43;4.20;;;;;;;18.92;100.00;-18270.84;6213778;23;20172;-59
2023/06/29 04:46:39;;;;;;;5.07;4.80;;;;;;;18.88;100.00;-18269.91;6213397;23;20177;-58
2023/06/29 04:49:09;;;;;;;4.87;4.50;;;;;;;18.89;100.00;-18270.13;6213400;23;20212;-59
2023/06/29 04:51:37;;;;;;;7.83;5.00;;;;;;;18.65;100.00;-18264.50;6213257;23;20181;-58
2023/06/29 04:54:05;;;;;;;5.87;5.33;;;;;;;18.86;100.00;-18269.41;6213231;23;20157;-59
2023/06/29 04:56:32;;;;;;;6.70;6.07;;;;;;;18.91;100.00;-18270.59;6187427;23;20181;-59
2023/06/29 04:58:59;;;;;;;10.73;6.07;;;;;;;18.98;100.00;-18272.41;6213570;23;20165;-60
2023/06/29 05:01:25;;;;;;;6.43;5.80;;;;;;;19.14;100.00;-18276.09;6213638;23;20157;-58
2023/06/29 05:03:52;;;;;;;6.70;6.00;;;;;;;19.08;100.00;-18274.66;6213702;23;20169;-60
2023/06/29 05:06:21;;;;;;;6.47;6.03;;;;;;;19.19;100.00;-18275.41;6187703;23;20259;-60
2023/06/29 05:08:48;;;;;;;7.53;6.90;;;;;;;18.91;100.00;-17946.69;6215151;23;20615;-59
2023/06/29 05:11:15;;;;;;;7.53;7.03;;;;;;;19.16;100.00;-16985.88;6216237;23;20162;-61
2023/06/29 05:13:41;;;;;;;7.50;6.83;;;;;;;19.13;100.00;-12470.63;6217117;23;20185;-61
2023/06/29 05:16:08;;;;;;;7.33;6.63;;;;;;;19.14;100.00;-15051.31;6216536;23;20666;-60
2023/06/29 05:18:36;;;;;;;7.03;6.30;;;;;;;19.36;100.00;-14732.75;6215540;23;20157;-62
2023/06/29 05:21:03;;;;;;;7.93;7.30;;;;;;;19.57;100.00;-6011.94;6215463;23;20157;-60
2023/06/29 05:23:32;;;;;;;8.13;7.57;;;;;;;19.96;100.00;7613.03;6214988;23;20167;-62
2023/06/29 05:26:01;;;;;;;8.00;7.30;;;;;;;20.11;100.00;25876.97;6215584;23;20173;-62
2023/06/29 05:28:28;;;;;;;8.93;8.33;;;;;;;20.32;100.00;56116.00;6215385;23;20173;-62
2023/06/29 05:30:55;;;;;;;13.47;7.90;;;;;;;20.42;100.00;60419.84;6215855;23;20184;-62
2023/06/29 05:33:22;;;;;;;10.73;8.17;;;;;;;20.63;100.00;76349.56;6215970;23;20216;-62
2023/06/29 05:35:49;;;;;;;12.13;9.47;;;;;;;20.77;100.00;83018.75;6216074;23;20271;-63
2023/06/29 05:38:16;;;;;;;9.40;8.85;;;;;;;21.10;100.00;107466.31;6215542;23;20189;-62
2023/06/29 05:40:44;;;;;;;9.05;7.55;;;;;;;21.49;100.00;141261.28;6215542;23;20158;-62
2023/06/29 05:43:11;;;;;;;10.65;9.63;;;;;;;21.51;100.00;151444.44;6216279;23;20574;-62
2023/06/29 05:45:39;;;;;;;8.70;8.10;;;;;;;21.98;100.00;151564.25;6215362;23;20257;-62
2023/06/29 05:48:07;;;;;;;8.65;7.90;;;;;;;21.88;100.00;151538.75;6215595;23;20173;-60
2023/06/29 05:50:33;;;;;;;8.93;8.18;;;;;;;22.42;100.00;151673.91;6215470;23;20238;-62
2023/06/29 05:53:00;;;;;;;8.70;8.30;;;;;;;22.53;100.00;151703.25;6215187;23;20184;-60
2023/06/29 05:55:27;;;;;;;10.60;9.70;;;;;;;22.72;100.00;151750.50;6214945;23;20157;-63
2023/06/29 05:57:55;;;;;;;15.32;10.05;;;;;;;23.13;100.00;151855.09;6215003;23;20171;-61
2023/06/29 06:00:22;;;;;;;8.90;8.15;;;;;;;23.26;100.00;151887.00;6215240;23;20161;-62
2023/06/29 06:02:50;;;;;;;8.40;7.82;;;;;;;23.45;100.00;151935.56;6188606;23;20180;-62
2023/06/29 06:05:20;;;;;;;9.23;8.63;;;;;;;23.69;100.00;151995.50;6215244;23;20158;-62
2023/06/29 06:07:47;;;;;;;10.80;8.45;;;;;;;23.92;100.00;152054.25;6215480;23;20165;-63
2023/06/29 06:10:14;;;;;;;10.00;9.10;;;;;;;24.42;100.00;152179.41;6215274;23;20169;-63
2023/06/29 06:12:40;;;;;;;10.27;8.50;;;;;;;25.15;100.00;152363.38;6215243;23;20260;-61
2023/06/29 06:15:11;;;;;;;9.70;8.75;;;;;;;25.65;100.00;152491.22;6216630;23;20205;-63
2023/06/29 06:17:38;;;;;;;9.95;9.10;;;;;;;25.68;100.00;152498.84;6215927;23;20161;-63
2023/06/29 06:20:06;;;;;;;8.77;8.38;;;;;;;25.62;100.00;152483.56;6215897;23;20176;-63
2023/06/29 06:22:33;;;;;;;9.63;9.07;;;;;;;26.03;100.00;152585.78;6216113;23;20244;-62
2023/06/29 06:25:00;;;;;;;11.45;9.68;;;;;;;26.36;100.00;152671.47;6216265;23;20196;-62
2023/06/29 06:27:27;;;;;;;9.10;8.25;;;;;;;26.26;100.00;152644.66;6215218;23;20165;-57
2023/06/29 06:29:53;;;;;;;8.45;8.07;;;;;;;26.14;100.00;152613.94;6215022;23;20169;-57
2023/06/29 06:32:24;;;;;;;8.60;8.02;;;;;;;26.08;100.00;152598.56;6214963;23;20532;-57
2023/06/29 06:34:51;;;;;;;10.02;9.25;;;;;;;26.47;100.00;152698.34;6214882;23;20256;-57
2023/06/29 06:37:19;;;;;;;9.07;8.38;;;;;;;27.09;100.00;152855.69;6214846;23;20165;-57
2023/06/29 06:39:46;;;;;;;9.02;8.30;;;;;;;26.69;100.00;152753.34;6215299;23;20192;-57
2023/06/29 06:42:13;;;;;;;8.38;7.80;;;;;;;26.33;100.00;152663.81;6215088;23;20244;-59
2023/06/29 06:44:51;;;;;;;7.72;7.40;;;;;;;25.86;100.00;152544.88;6214668;23;20555;-59
2023/06/29 06:47:18;;;;;;;11.05;9.95;;;;;;;25.52;100.00;152457.94;6214885;23;20461;-56
2023/06/29 06:49:48;;;;;;;9.30;8.60;;;;;;;25.51;100.00;152455.34;6214984;23;20242;-56
2023/06/29 06:52:15;;;;;;;7.72;7.43;;;;;;;25.04;100.00;152336.53;6214758;23;20212;-58
2023/06/29 06:54:42;;;;;;;13.07;8.73;;;;;;;25.16;100.00;152365.94;6214310;23;20236;-63
2023/06/29 06:57:09;;;;;;;7.03;6.53;;;;;;;25.69;100.00;152500.16;6189688;23;20162;-60
2023/06/29 06:59:36;;;;;;;7.30;7.00;;;;;;;26.03;100.00;152587.06;6215033;23;20240;-60
2023/06/29 07:02:05;;;;;;;8.15;7.55;;;;;;;26.66;100.00;152745.63;6215238;23;20173;-60
2023/06/29 07:04:33;;;;;;;19.83;8.90;;;;;;;26.79;100.00;152780.19;6214402;23;20555;-59
2023/06/29 07:07:01;;;;;;;7.60;7.22;;;;;;;26.19;100.00;152626.69;6214356;23;20232;-60
2023/06/29 07:09:28;;;;;;;6.95;6.75;;;;;;;26.31;100.00;152657.41;6187593;23;20248;-60
2023/06/29 07:11:55;;;;;;;7.40;6.93;;;;;;;26.09;100.00;152601.13;6214400;23;20158;-59
2023/06/29 07:14:22;;;;;;;8.75;7.55;;;;;;;26.03;100.00;152585.78;6214107;23;20606;-61
2023/06/29 07:16:51;;;;;;;9.32;8.45;;;;;;;26.08;100.00;152599.84;6214110;23;20172;-62
2023/06/29 07:19:19;;;;;;;9.48;7.20;;;;;;;26.39;100.00;152677.91;6214178;23;20154;-58
2023/06/29 07:21:46;;;;;;;7.60;7.05;;;;;;;26.61;100.00;152734.13;6214093;23;20172;-60
2023/06/29 07:24:17;;;;;;;7.93;7.40;;;;;;;26.60;100.00;152731.59;6214310;23;20167;-65
2023/06/29 07:26:45;;;;;;;9.30;7.82;;;;;;;26.51;100.00;152708.59;6213906;23;20158;-61
2023/06/29 07:29:12;;;;;;;8.60;7.90;;;;;;;26.73;100.00;152764.81;6214110;23;20168;-60
2023/06/29 07:31:39;;;;;;;7.20;6.90;;;;;;;26.67;100.00;152749.50;6213554;23;20161;-60
2023/06/29 07:34:09;;;;;;;7.93;7.28;;;;;;;26.80;100.00;152781.47;6213819;23;20547;-59
2023/06/29 07:36:37;;;;;;;7.88;7.30;;;;;;;26.67;100.00;152749.50;6213188;23;20227;-59
2023/06/29 07:39:04;;;;;;;7.90;7.50;;;;;;;26.83;100.00;152790.41;6214805;23;20172;-60
2023/06/29 07:41:33;;;;;;;7.25;6.75;;;;;;;26.77;100.00;152775.09;6214506;23;20157;-61
2023/06/29 07:44:01;;;;;;;8.30;7.50;;;;;;;27.27;100.00;152901.75;6213371;23;20233;-61
2023/06/29 07:46:28;;;;;;;6.63;6.32;;;;;;;27.44;100.00;152943.97;6213443;23;20217;-60
2023/06/29 07:48:55;;;;;;;6.55;6.25;;;;;;;27.33;100.00;152914.56;6213272;23;20168;-60
2023/06/29 07:51:22;;;;;;;7.13;6.60;;;;;;;27.23;100.00;152891.53;6213870;23;20158;-60
2023/06/29 07:53:50;;;;;;;6.88;6.20;;;;;;;27.07;100.00;152850.59;6213467;23;20264;-59
2023/06/29 07:56:17;;;;;;;6.95;6.75;;;;;;;26.76;100.00;152772.53;6214035;23;20157;-59
2023/06/29 07:58:46;;;;;;;5.85;5.57;;;;;;;27.20;100.00;152882.56;6215033;23;20157;-62
2023/06/29 08:01:13;;;;;;;9.02;6.00;;;;;;;27.37;100.00;152926.03;6214535;23;20153;-60
2023/06/29 08:03:40;;;;;;;6.13;4.75;;;;;;;27.42;100.00;152937.53;6187487;23;20169;-62
2023/06/29 08:06:07;;;;;;;5.07;4.70;;;;;;;27.09;100.00;152854.41;6213968;23;20157;-60
2023/06/29 08:08:34;;;;;;;5.63;5.22;;;;;;;27.17;100.00;152874.88;6213561;23;20162;-61
2023/06/29 08:11:01;;;;;;;5.72;5.40;;;;;;;27.46;100.00;152949.06;6213382;23;20158;-61
2023/06/29 08:13:29;;;;;;;4.30;4.20;;;;;;;27.64;100.00;152993.91;6213195;23;20201;-62
2023/06/29 08:16:04;;;;;;;6.20;5.63;;;;;;;27.85;100.00;153047.66;6213243;23;20211;-61
2023/06/29 08:18:31;;;;;;;3.90;3.70;;;;;;;27.89;96.41;153056.59;6213650;23;20153;-63
2023/06/29 08:20:58;;;;;;;4.95;4.25;;;;;;;27.93;98.63;153066.84;6213990;23;20150;-60
2023/06/29 08:23:25;;;;;;;4.35;4.13;;;;;;;27.88;96.67;153054.06;6213146;23;20153;-60
2023/06/29 08:25:52;;;;;;;5.78;4.85;;;;;;;28.06;92.53;153100.13;6213860;23;20157;-61
2023/06/29 08:28:19;;;;;;;3.50;3.30;;;;;;;28.25;87.42;153147.53;6213903;23;20236;-62
2023/06/29 08:30:46;;;;;;;7.15;4.07;;;;;;;28.15;91.34;153123.22;6213211;23;20162;-63
2023/06/29 08:33:14;;;;;;;4.95;4.68;;;;;;;28.29;87.54;153159.06;6213388;23;20678;-60
2023/06/29 08:35:41;;;;;;;7.43;4.30;;;;;;;28.25;99.25;153148.84;6213600;23;20604;-61
2023/06/29 08:38:09;;;;;;;4.45;4.25;;;;;;;28.34;97.01;153171.88;6213434;23;20161;-60
2023/06/29 08:40:36;;;;;;;4.68;4.35;;;;;;;28.30;97.25;153161.66;6213460;23;20162;-61
2023/06/29 08:43:03;;;;;;;4.65;4.05;;;;;;;28.25;95.93;153147.53;6214722;23;20244;-60
2023/06/29 08:45:30;;;;;;;3.80;3.70;;;;;;;28.59;90.44;153235.91;6215952;23;20165;-59
2023/06/29 08:47:59;;;;;;;4.70;4.30;;;;;;;28.87;88.96;153306.34;6215198;23;20158;-60
2023/06/29 08:50:28;;;;;;;4.05;3.75;;;;;;;28.84;85.44;153298.69;6215849;23;20264;-61
2023/06/29 08:52:57;;;;;;;4.50;4.20;;;;;;;29.18;90.41;153384.47;6215808;23;20239;-61
2023/06/29 08:55:24;;;;;;;3.42;3.33;;;;;;;29.30;81.50;153415.25;6215248;23;20165;-60
2023/06/29 08:57:53;;;;;;;4.18;3.50;;;;;;;29.47;78.89;153457.53;6215528;23;20165;-60
2023/06/29 09:00:22;;;;;;;3.70;3.50;;;;;;;29.97;76.79;153584.41;6215158;23;20162;-61
2023/06/29 09:02:53;;;;;;;3.70;3.40;;;;;;;29.95;70.69;153579.31;6215397;23;20176;-63
2023/06/29 09:05:21;;;;;;;3.75;3.53;;;;;;;29.96;70.54;153580.59;6215292;23;20245;-60
2023/06/29 09:07:53;;;;;;;3.83;3.72;;;;;;;30.14;75.08;153628.00;6215292;23;20157;-60
2023/06/29 09:10:21;;;;;;;4.05;3.95;;;;;;;30.25;71.67;153656.22;6215269;23;20216;-62
2023/06/29 09:12:49;;;;;;;3.95;3.53;;;;;;;30.25;79.37;153656.22;6215174;23;20157;-62
2023/06/29 09:15:17;;;;;;;3.83;3.70;;;;;;;29.90;67.97;153567.78;6215232;23;20272;-62
2023/06/29 09:17:45;;;;;;;7.22;5.75;;;;;;;29.65;69.06;153503.66;6214981;23;20196;-62
2023/06/29 09:20:19;;;;;;;4.50;3.50;;;;;;;29.01;74.88;153342.22;6215484;23;20240;-60
2023/06/29 09:22:51;;;;;;;3.30;3.20;;;;;;;28.85;81.26;153299.97;6214797;23;20172;-60
2023/06/29 09:25:19;;;;;;;4.70;3.47;;;;;;;28.75;74.06;153274.34;6215118;23;20169;-61
2023/06/29 09:27:46;;;;;;;3.38;3.08;;;;;;;28.99;73.27;153337.06;6215409;23;20169;-61
2023/06/29 09:30:18;;;;;;;3.25;3.05;;;;;;;29.14;77.60;153374.25;6215468;23;20290;-60
2023/06/29 09:32:45;;;;;;;3.58;3.38;;;;;;;29.16;82.91;153379.34;6214923;23;20616;-61
2023/06/29 09:35:12;;;;;;;3.85;3.75;;;;;;;29.14;76.01;153372.94;6214879;23;20162;-61
2023/06/29 09:37:40;;;;;;;3.55;3.35;;;;;;;29.07;78.53;153355.03;6215287;23;20157;-61
2023/06/29 09:40:11;;;;;;;3.47;3.38;;;;;;;29.04;83.30;153348.59;6214899;23;20165;-61
2023/06/29 09:42:38;;;;;;;4.85;3.78;;;;;;;29.25;84.29;153401.09;6214855;23;20573;-61
2023/06/29 09:45:11;;;;;;;3.70;3.38;;;;;;;29.29;76.79;153411.41;6215217;23;20593;-61
2023/06/29 09:47:40;;;;;;;4.28;4.18;;;;;;;29.33;77.01;153421.66;6215137;23;20160;-61
2023/06/29 09:50:18;;;;;;;4.85;4.53;;;;;;;28.87;77.99;153305.06;6214828;23;20169;-61
2023/06/29 09:52:46;;;;;;;4.88;4.25;;;;;;;29.49;85.28;153463.91;6215013;23;20565;-60
2023/06/29 09:55:15;;;;;;;4.32;4.13;;;;;;;30.03;73.31;153599.81;6214690;23;20413;-60
2023/06/29 09:57:45;;;;;;;5.30;4.35;;;;;;;30.44;68.24;153702.31;6215028;23;20161;-61
2023/06/29 10:00:13;;;;;;;4.25;4.03;;;;;;;30.38;64.67;153689.50;6214620;23;20240;-60
2023/06/29 10:02:40;;;;;;;4.40;4.10;;;;;;;30.83;67.01;153803.66;6214635;23;20180;-60
2023/06/29 10:05:08;;;;;;;4.25;3.92;;;;;;;30.50;66.63;153717.78;6214952;23;20153;-61
2023/06/29 10:07:35;;;;;;;3.63;3.33;;;;;;;30.27;70.53;153661.31;6214505;23;20189;-60
2023/06/29 10:10:05;;;;;;;4.18;3.97;;;;;;;30.39;71.93;153692.06;6215013;23;20544;-60
2023/06/29 10:12:34;;;;;;;3.22;3.13;;;;;;;30.37;67.91;153686.97;6214596;23;20217;-59
2023/06/29 10:15:09;;;;;;;4.13;3.85;;;;;;;30.24;68.74;153653.63;6214913;23;20695;-61
2023/06/29 10:17:47;;;;;;;4.38;4.10;;;;;;;30.44;66.81;153702.31;6214445;23;20160;-61
2023/06/29 10:20:17;;;;;;;3.38;3.28;;;;;;;30.54;62.87;153728.03;6214326;23;20197;-60
2023/06/29 10:22:45;;;;;;;3.53;3.35;;;;;;;30.64;62.18;153753.69;6214193;23;20162;-61
2023/06/29 10:25:19;;;;;;;9.30;3.85;;;;;;;30.64;58.15;153754.91;6214283;23;20187;-61
2023/06/29 10:27:49;;;;;;;3.45;3.08;;;;;;;30.24;60.94;153652.34;6214530;23;20504;-60
2023/06/29 10:30:19;;;;;;;4.20;3.85;;;;;;;30.13;63.96;153625.41;6214664;23;20161;-59
2023/06/29 10:32:50;;;;;;;3.92;3.72;;;;;;;30.24;64.20;153652.34;6214002;23;20212;-60
2023/06/29 10:35:18;;;;;;;4.05;3.65;;;;;;;30.35;65.48;153681.81;6214442;23;20177;-60
2023/06/29 10:37:46;;;;;;;4.68;4.38;;;;;;;30.35;62.07;153681.81;6214107;23;20162;-60
2023/06/29 10:40:15;;;;;;;7.28;3.60;;;;;;;30.32;63.82;153674.13;6214217;23;20162;-62
2023/06/29 10:42:56;;;;;;;4.82;3.22;;;;;;;30.29;62.28;153665.19;6214584;23;20220;-61
2023/06/29 10:45:33;;;;;;;7.03;6.72;;;;;;;30.23;64.38;153649.78;6214756;23;20634;-60
2023/06/29 10:48:13;;;;;;;4.50;4.30;;;;;;;29.93;62.62;153574.16;6212982;23;20165;-61
2023/06/29 10:50:42;;;;;;;3.70;3.53;;;;;;;29.84;59.99;153551.03;6213408;23;20176;-61
2023/06/29 10:53:11;;;;;;;2.92;2.83;;;;;;;29.59;63.31;153487.00;6213961;23;20161;-60
2023/06/29 10:55:51;;;;;;;3.65;3.17;;;;;;;29.66;59.74;153506.25;6214038;23;20188;-62
2023/06/29 10:58:24;;;;;;;3.30;3.10;;;;;;;29.74;60.80;153525.44;6213288;23;20228;-61
2023/06/29 11:00:54;;;;;;;4.00;3.60;;;;;;;29.21;65.42;153392.16;6214215;23;20181;-62
2023/06/29 11:03:23;;;;;;;4.65;4.43;;;;;;;29.23;68.60;153397.28;6214878;23;20176;-62
2023/06/29 11:05:53;;;;;;;4.15;3.95;;;;;;;29.41;73.55;153442.13;6214276;23;20536;-61
2023/06/29 11:08:22;;;;;;;3.80;3.63;;;;;;;29.45;66.92;153453.69;6214089;23;20165;-60
2023/06/29 11:10:49;;;;;;;5.30;3.05;;;;;;;29.21;61.97;153392.16;6214180;23;20441;-60
2023/06/29 11:13:19;;;;;;;2.78;2.58;;;;;;;29.44;57.32;153449.88;6214237;23;20153;-59
2023/06/29 11:15:53;;;;;;;3.42;2.40;;;;;;;29.38;66.75;153435.75;6213798;23;20201;-60
2023/06/29 11:18:20;;;;;;;2.55;2.45;;;;;;;29.37;66.19;153431.91;6214720;23;20540;-61
2023/06/29 11:20:48;;;;;;;2.55;2.45;;;;;;;29.14;62.70;153374.25;6213887;23;20157;-60
2023/06/29 11:23:16;;;;;;;2.65;2.55;;;;;;;29.04;68.47;153348.59;6187202;23;20162;-59